Time;durP1;ratioP1;P1;durP2;ratioP2;P2;SDS_P1;SDS_P2;PMS_P1;PMS_P2;Temp;Humidity;BMP_temperature;BMP_pressure;BME280_temperature;BME280_humidity;BME280_pressure;Samples;Min_cycle;Max_cycle;Signal;HPM_P1;HPM_P2
2021/12/03 00:00:40;;;;;;;5.85;3.80;;;;;;;17.42;46.72;100285.41;5017731;28;20029;-75
2021/12/03 00:03:07;;;;;;;4.88;3.90;;;;;;;17.50;46.59;100277.25;5035382;28;20021;-75
2021/12/03 00:05:33;;;;;;;5.93;4.30;;;;;;;17.45;46.95;100281.91;5035389;28;20028;-75
2021/12/03 00:07:58;;;;;;;5.60;5.00;;;;;;;17.00;48.58;100284.69;5035239;28;20021;-75
2021/12/03 00:10:25;;;;;;;5.30;4.40;;;;;;;17.33;47.45;100284.88;5035209;28;20026;-76
2021/12/03 00:12:53;;;;;;;5.32;4.15;;;;;;;17.57;46.85;100286.44;5035117;28;20030;-75
2021/12/03 00:15:20;;;;;;;5.38;4.45;;;;;;;17.52;47.62;100285.94;5035120;28;20033;-76
2021/12/03 00:17:46;;;;;;;5.60;5.00;;;;;;;17.47;47.85;100284.31;5035098;28;20053;-76
2021/12/03 00:20:14;;;;;;;6.20;4.75;;;;;;;17.39;48.45;100275.13;5034626;28;20064;-76
2021/12/03 00:22:46;;;;;;;6.35;4.60;;;;;;;17.34;48.60;100272.66;5035020;28;20025;-75
2021/12/03 00:25:12;;;;;;;5.88;5.18;;;;;;;17.37;48.76;100285.72;5034961;28;20420;-78
2021/12/03 00:27:39;;;;;;;5.40;4.80;;;;;;;17.54;48.41;100280.88;5034912;28;20033;-75
2021/12/03 00:30:08;;;;;;;7.55;5.72;;;;;;;17.42;48.89;100284.63;5034930;28;20090;-75
2021/12/03 00:32:34;;;;;;;7.57;5.70;;;;;;;17.56;48.73;100282.09;5034654;28;20040;-75
2021/12/03 00:35:00;;;;;;;6.90;5.80;;;;;;;17.45;49.33;100281.09;5034833;28;20380;-75
2021/12/03 00:37:25;;;;;;;6.00;5.40;;;;;;;17.43;49.43;100284.25;5016965;28;20025;-76
2021/12/03 00:39:51;;;;;;;6.72;6.03;;;;;;;17.52;49.32;100275.69;5034478;28;20028;-76
2021/12/03 00:42:18;;;;;;;6.60;5.10;;;;;;;17.69;49.10;100279.94;5034663;28;20029;-75
2021/12/03 00:44:49;;;;;;;6.38;5.55;;;;;;;17.22;50.35;100283.88;5034457;28;20654;-76
2021/12/03 00:47:14;;;;;;;6.40;5.72;;;;;;;17.33;50.50;100273.84;5034572;28;20022;-75
2021/12/03 00:49:40;;;;;;;8.18;5.75;;;;;;;17.56;50.09;100273.00;5034539;28;20032;-75
2021/12/03 00:52:07;;;;;;;8.82;5.63;;;;;;;17.38;50.91;100275.47;5034437;28;20022;-75
2021/12/03 00:54:32;;;;;;;7.82;6.55;;;;;;;17.83;49.28;100271.84;5034435;28;20026;-76
2021/12/03 00:56:58;;;;;;;7.00;6.20;;;;;;;17.98;48.93;100267.31;5034396;28;20559;-75
2021/12/03 00:59:24;;;;;;;6.85;5.63;;;;;;;17.86;49.20;100260.06;5034305;28;20029;-75
2021/12/03 01:01:49;;;;;;;7.00;5.93;;;;;;;17.82;49.65;100277.75;5034280;28;20025;-75
2021/12/03 01:04:15;;;;;;;8.75;6.03;;;;;;;17.91;49.38;100256.16;5034228;28;20021;-76
2021/12/03 01:06:41;;;;;;;6.72;5.80;;;;;;;17.92;49.50;100266.88;5034184;28;20104;-75
2021/12/03 01:09:07;;;;;;;7.70;5.70;;;;;;;18.11;48.87;100267.88;5034187;28;20520;-75
2021/12/03 01:11:32;;;;;;;6.97;5.70;;;;;;;18.30;48.28;100265.78;5034049;28;20423;-75
2021/12/03 01:14:00;;;;;;;7.50;5.68;;;;;;;18.21;48.56;100264.44;5034314;28;20597;-76
2021/12/03 01:16:30;;;;;;;8.55;5.43;;;;;;;18.37;48.08;100265.06;5034036;28;20033;-75
2021/12/03 01:18:57;;;;;;;7.03;5.55;;;;;;;18.10;48.90;100267.09;5033947;28;20068;-75
2021/12/03 01:21:23;;;;;;;7.35;5.20;;;;;;;18.25;48.57;100270.84;5016220;28;20032;-75
2021/12/03 01:23:49;;;;;;;7.50;5.00;;;;;;;18.36;48.26;100265.44;5033823;28;20028;-77
2021/12/03 01:26:16;;;;;;;5.70;4.05;;;;;;;18.28;48.58;100262.56;5033791;28;20021;-75
2021/12/03 01:28:42;;;;;;;6.65;4.10;;;;;;;18.36;48.60;100279.25;5033848;28;20109;-75
2021/12/03 01:31:09;;;;;;;5.78;3.90;;;;;;;18.49;48.18;100269.53;5033693;28;20033;-75
2021/12/03 01:33:35;;;;;;;3.75;2.72;;;;;;;18.29;49.04;100280.78;5032866;28;20056;-75
2021/12/03 01:36:01;;;;;;;5.85;2.92;;;;;;;18.25;49.32;100273.59;5015958;28;20030;-75
2021/12/03 01:38:26;;;;;;;3.85;2.55;;;;;;;18.34;49.21;100271.34;5033639;28;20021;-78
2021/12/03 01:40:52;;;;;;;2.50;2.00;;;;;;;18.52;48.49;100275.13;5033683;28;20028;-76
2021/12/03 01:43:23;;;;;;;2.20;1.77;;;;;;;18.40;49.11;100266.28;5033335;28;20032;-75
2021/12/03 01:45:52;;;;;;;2.92;1.90;;;;;;;18.52;48.66;100264.06;5033531;28;20100;-75
2021/12/03 01:48:18;;;;;;;1.73;1.50;;;;;;;18.60;48.45;100262.16;5033501;28;20379;-75
2021/12/03 01:50:46;;;;;;;2.70;1.77;;;;;;;18.86;47.84;100272.34;5033338;28;20033;-75
2021/12/03 01:53:15;;;;;;;2.63;1.58;;;;;;;18.91;47.53;100272.00;5033252;28;20044;-75
2021/12/03 01:55:43;;;;;;;3.50;1.70;;;;;;;18.88;47.35;100266.41;5015575;28;20423;-76
2021/12/03 01:58:10;;;;;;;1.25;1.15;;;;;;;18.84;47.26;100272.72;5033219;28;20044;-75
2021/12/03 02:00:44;;;;;;;2.50;1.42;;;;;;;18.62;47.95;100265.34;5033294;28;20025;-75
2021/12/03 02:03:14;;;;;;;1.98;1.23;;;;;;;18.57;48.34;100268.44;5033169;28;20033;-75
2021/12/03 02:05:40;;;;;;;3.63;1.55;;;;;;;18.45;48.92;100274.25;5033187;28;20056;-76
2021/12/03 02:08:06;;;;;;;2.00;1.20;;;;;;;18.31;49.44;100283.16;5033022;28;20104;-75
2021/12/03 02:10:33;;;;;;;2.92;1.10;;;;;;;18.59;48.51;100288.25;5033047;28;20053;-76
2021/12/03 02:12:58;;;;;;;1.83;1.20;;;;;;;18.53;48.79;100292.53;5032881;28;20031;-76
2021/12/03 02:15:24;;;;;;;1.52;1.05;;;;;;;18.64;48.25;100296.19;5032954;28;20116;-75
2021/12/03 02:17:50;;;;;;;1.05;0.90;;;;;;;18.62;48.37;100297.75;5032888;28;20468;-76
2021/12/03 02:20:17;;;;;;;1.00;0.90;;;;;;;18.54;48.54;100300.44;5032936;28;20033;-75
2021/12/03 02:22:44;;;;;;;1.35;0.90;;;;;;;18.75;47.87;100304.66;5032813;28;20036;-75
2021/12/03 02:25:17;;;;;;;1.48;0.95;;;;;;;18.68;47.78;100290.75;5032769;28;20534;-75
2021/12/03 02:27:43;;;;;;;1.10;0.90;;;;;;;18.61;47.96;100294.19;5032808;28;20071;-76
2021/12/03 02:30:09;;;;;;;0.88;0.80;;;;;;;18.58;47.81;100301.25;5032726;28;20300;-75
2021/12/03 02:32:35;;;;;;;1.40;1.30;;;;;;;18.57;47.95;100298.88;5032575;28;20397;-76
2021/12/03 02:35:02;;;;;;;1.45;1.08;;;;;;;18.65;47.86;100308.84;5032677;28;20041;-76
2021/12/03 02:37:28;;;;;;;3.55;0.93;;;;;;;18.40;48.47;100311.31;5032596;28;20491;-75
2021/12/03 02:39:54;;;;;;;1.90;1.10;;;;;;;18.50;48.24;100312.63;5032590;28;20064;-76
2021/12/03 02:42:19;;;;;;;1.33;0.80;;;;;;;18.35;48.49;100308.88;5032590;28;20065;-77
2021/12/03 02:44:45;;;;;;;1.83;1.00;;;;;;;18.37;48.39;100298.25;5032266;28;20057;-76
2021/12/03 02:47:11;;;;;;;2.13;0.90;;;;;;;18.23;48.87;100298.88;5032188;28;20122;-75
2021/12/03 02:49:40;;;;;;;1.70;1.00;;;;;;;18.36;48.48;100306.91;5032482;28;20457;-77
2021/12/03 02:52:07;;;;;;;2.40;0.90;;;;;;;18.21;48.77;100312.28;5032096;28;20476;-75
2021/12/03 02:54:32;;;;;;;1.95;1.02;;;;;;;18.23;48.76;100309.13;5032409;28;20502;-75
2021/12/03 02:56:58;;;;;;;2.33;1.30;;;;;;;18.05;49.01;100313.63;5032372;28;20109;-75
2021/12/03 02:59:23;;;;;;;1.30;0.88;;;;;;;18.22;48.58;100316.63;5032325;28;20069;-76
2021/12/03 03:01:49;;;;;;;1.33;0.90;;;;;;;18.13;48.86;100318.06;5032421;28;20026;-75
2021/12/03 03:04:14;;;;;;;1.55;1.15;;;;;;;17.84;49.34;100317.69;5032399;28;20041;-75
2021/12/03 03:06:40;;;;;;;0.88;0.70;;;;;;;18.03;49.06;100316.75;5032323;28;20084;-75
2021/12/03 03:09:11;;;;;;;2.60;1.30;;;;;;;18.15;48.68;100315.75;5032280;28;20108;-75
2021/12/03 03:11:37;;;;;;;2.50;0.90;;;;;;;18.23;48.38;100309.13;5032191;28;20026;-74
2021/12/03 03:14:04;;;;;;;1.85;0.68;;;;;;;18.24;48.11;100300.47;5014589;28;20061;-75
2021/12/03 03:16:31;;;;;;;0.60;0.60;;;;;;;18.28;47.77;100306.81;5036505;28;20064;-76
2021/12/03 03:18:57;;;;;;;2.85;0.50;;;;;;;18.12;47.85;100313.72;5002404;28;20028;-77
2021/12/03 03:21:23;;;;;;;1.20;0.50;;;;;;;18.10;47.84;100316.84;5021354;28;20029;-82
2021/12/03 03:23:50;;;;;;;1.90;0.50;;;;;;;18.08;47.21;100310.91;5019556;28;20097;-80
2021/12/03 03:26:16;;;;;;;2.20;0.70;;;;;;;18.02;47.49;100318.72;5020182;28;20382;-75
2021/12/03 03:28:44;;;;;;;1.13;0.47;;;;;;;18.12;47.11;100320.03;5021415;28;20033;-75
2021/12/03 03:31:10;;;;;;;4.05;0.80;;;;;;;17.99;47.22;100318.69;5019703;28;20683;-76
2021/12/03 03:33:36;;;;;;;7.55;0.75;;;;;;;18.05;46.90;100317.16;5020049;28;20116;-76
2021/12/03 03:36:02;;;;;;;1.67;0.63;;;;;;;18.08;46.68;100321.97;5021283;28;20033;-75
2021/12/03 03:38:28;;;;;;;2.05;0.70;;;;;;;18.04;46.71;100323.88;5019441;28;20430;-76
2021/12/03 03:40:55;;;;;;;3.10;1.02;;;;;;;17.97;46.44;100335.63;5020170;28;20105;-75
2021/12/03 03:43:21;;;;;;;2.75;0.60;;;;;;;17.93;46.43;100334.00;5020891;28;20041;-75
2021/12/03 03:45:48;;;;;;;6.22;0.70;;;;;;;17.89;46.49;100327.59;5019187;28;20022;-76
2021/12/03 03:48:14;;;;;;;2.03;0.65;;;;;;;17.86;46.49;100331.13;5020204;28;20391;-80
2021/12/03 03:50:40;;;;;;;3.78;0.57;;;;;;;17.87;46.38;100332.72;5023671;28;20041;-76
2021/12/03 03:53:06;;;;;;;6.93;0.80;;;;;;;17.73;46.37;100328.56;5019027;28;20422;-76
2021/12/03 03:55:32;;;;;;;3.40;0.93;;;;;;;17.64;46.35;100322.47;5020058;28;20022;-75
2021/12/03 03:57:59;;;;;;;6.88;1.73;;;;;;;17.51;46.62;100326.59;5025424;28;20021;-78
2021/12/03 04:00:32;;;;;;;5.15;1.17;;;;;;;17.59;46.53;100308.97;5022743;28;20080;-79
2021/12/03 04:02:58;;;;;;;5.68;1.38;;;;;;;17.58;46.09;100314.88;5023531;28;20022;-77
2021/12/03 04:05:23;;;;;;;4.68;1.40;;;;;;;17.44;46.23;100320.94;5022873;28;20040;-75
2021/12/03 04:07:49;;;;;;;7.28;1.80;;;;;;;17.57;46.02;100322.34;5024485;28;20021;-76
2021/12/03 04:10:15;;;;;;;5.53;1.42;;;;;;;17.57;46.06;100330.63;5005288;28;20025;-75
2021/12/03 04:12:41;;;;;;;5.57;1.20;;;;;;;17.48;46.17;100349.44;5023183;28;20056;-76
2021/12/03 04:15:09;;;;;;;7.07;1.70;;;;;;;17.60;45.97;100349.22;5024344;28;20091;-76
2021/12/03 04:17:35;;;;;;;9.82;2.30;;;;;;;17.66;45.63;100347.75;5038964;28;20388;-76
2021/12/03 04:20:01;;;;;;;7.40;1.50;;;;;;;17.73;45.51;100341.56;5043196;28;20032;-76
2021/12/03 04:22:27;;;;;;;7.35;1.70;;;;;;;17.78;45.35;100332.19;5044995;28;20025;-76
2021/12/03 04:24:54;;;;;;;10.65;1.80;;;;;;;17.75;45.34;100334.50;5043658;28;20032;-76
2021/12/03 04:27:20;;;;;;;5.45;1.50;;;;;;;17.75;45.28;100333.72;5043167;28;20029;-81
2021/12/03 04:29:46;;;;;;;7.93;1.48;;;;;;;17.69;45.08;100326.91;5042644;28;20030;-75
2021/12/03 04:32:12;;;;;;;3.75;1.10;;;;;;;17.61;45.27;100337.03;5044125;28;20086;-76
2021/12/03 04:34:39;;;;;;;9.38;1.90;;;;;;;17.58;45.19;100350.78;5042171;28;20103;-75
2021/12/03 04:37:05;;;;;;;7.97;1.88;;;;;;;17.57;44.81;100352.75;5043081;28;20025;-76
2021/12/03 04:39:31;;;;;;;5.82;1.92;;;;;;;17.52;45.28;100358.56;5035799;28;20067;-75
2021/12/03 04:41:57;;;;;;;13.57;2.30;;;;;;;17.48;45.26;100361.28;5042092;28;20065;-75
2021/12/03 04:44:23;;;;;;;11.30;2.40;;;;;;;17.55;45.03;100357.06;5013443;28;20141;-76
2021/12/03 04:46:48;;;;;;;7.85;1.80;;;;;;;17.55;45.04;100360.59;5014844;28;20030;-76
2021/12/03 04:49:14;;;;;;;6.20;1.88;;;;;;;17.56;44.98;100364.16;5014771;28;20030;-75
2021/12/03 04:51:40;;;;;;;10.75;1.88;;;;;;;17.54;44.74;100356.25;5014716;28;20021;-76
2021/12/03 04:54:07;;;;;;;8.65;1.40;;;;;;;17.52;44.73;100361.31;5014690;28;20037;-75
2021/12/03 04:56:32;;;;;;;6.72;1.85;;;;;;;17.45;45.04;100361.19;5014699;28;20052;-75
2021/12/03 04:58:58;;;;;;;10.52;2.78;;;;;;;17.40;45.16;100350.47;5013404;28;20480;-76
2021/12/03 05:01:24;;;;;;;7.28;2.10;;;;;;;17.46;44.90;100344.28;5014582;28;20101;-76
2021/12/03 05:03:49;;;;;;;8.00;2.47;;;;;;;17.41;45.02;100358.41;5014520;28;20473;-76
2021/12/03 05:06:17;;;;;;;10.77;2.00;;;;;;;17.41;44.98;100357.59;5014038;28;20492;-75
2021/12/03 05:08:43;;;;;;;10.70;2.80;;;;;;;17.48;44.69;100357.72;5013782;28;20030;-76
2021/12/03 05:11:09;;;;;;;10.45;2.22;;;;;;;17.45;44.83;100356.47;5014363;28;20034;-76
2021/12/03 05:13:36;;;;;;;10.55;2.83;;;;;;;17.44;44.82;100367.91;5014301;28;20115;-76
2021/12/03 05:16:04;;;;;;;17.85;2.75;;;;;;;17.40;44.75;100372.56;5013063;28;20030;-77
2021/12/03 05:18:30;;;;;;;11.00;3.28;;;;;;;17.44;44.84;100370.66;5014302;28;20041;-75
2021/12/03 05:20:59;;;;;;;11.35;2.83;;;;;;;17.55;44.64;100366.13;5014241;28;20030;-76
2021/12/03 05:23:27;;;;;;;12.02;2.33;;;;;;;17.56;44.36;100372.44;5014199;28;20030;-75
2021/12/03 05:25:53;;;;;;;15.90;2.95;;;;;;;17.57;44.30;100366.56;5014235;28;20384;-75
2021/12/03 05:28:19;;;;;;;12.20;2.20;;;;;;;17.42;44.78;100371.03;5014127;28;20225;-76
2021/12/03 05:30:45;;;;;;;10.95;1.92;;;;;;;17.42;44.71;100387.59;5014074;28;20136;-76
2021/12/03 05:33:11;;;;;;;8.10;1.90;;;;;;;17.43;44.91;100391.16;5013936;28;20037;-75
2021/12/03 05:35:37;;;;;;;9.60;2.03;;;;;;;17.34;44.92;100380.34;5013891;28;20105;-76
2021/12/03 05:38:03;;;;;;;10.60;3.60;;;;;;;17.10;45.31;100369.66;5013935;28;20112;-76
2021/12/03 05:40:29;;;;;;;13.25;2.40;;;;;;;17.16;45.52;100363.47;5013853;28;20168;-76
2021/12/03 05:42:55;;;;;;;14.35;4.25;;;;;;;16.99;45.61;100358.41;5013796;28;20026;-75
2021/12/03 05:45:27;;;;;;;13.48;2.70;;;;;;;17.12;45.32;100362.59;5031985;28;20404;-76
2021/12/03 05:47:53;;;;;;;7.78;2.13;;;;;;;17.14;45.11;100359.47;5015853;28;20045;-75
2021/12/03 05:50:19;;;;;;;7.57;1.88;;;;;;;17.12;45.23;100359.06;5033448;28;20033;-75
2021/12/03 05:52:47;;;;;;;15.68;2.80;;;;;;;17.17;45.05;100354.03;5033330;28;20033;-75
2021/12/03 05:55:14;;;;;;;11.05;2.58;;;;;;;17.14;45.03;100343.69;5033305;28;20558;-76
2021/12/03 05:57:41;;;;;;;7.47;2.10;;;;;;;17.10;45.17;100342.84;5033286;28;20030;-75
2021/12/03 06:00:21;;;;;;;15.48;2.55;;;;;;;17.15;44.94;100339.81;5033163;28;20033;-76
2021/12/03 06:02:47;;;;;;;6.43;2.08;;;;;;;17.14;44.81;100340.94;5033228;28;20030;-76
2021/12/03 06:05:12;;;;;;;8.50;2.83;;;;;;;17.03;45.09;100330.88;5033134;28;20037;-76
2021/12/03 06:07:38;;;;;;;13.45;2.25;;;;;;;17.10;44.91;100326.28;5033195;28;20431;-76
2021/12/03 06:10:04;;;;;;;10.65;2.38;;;;;;;16.99;45.04;100327.25;5032999;28;20128;-76
2021/12/03 06:12:30;;;;;;;11.80;2.33;;;;;;;17.00;45.03;100337.13;5032840;28;20033;-76
2021/12/03 06:14:56;;;;;;;15.93;3.28;;;;;;;17.03;44.97;100339.16;5032932;28;20361;-76
2021/12/03 06:17:21;;;;;;;8.40;2.28;;;;;;;17.09;44.62;100349.53;5032897;28;20026;-75
2021/12/03 06:19:47;;;;;;;11.48;2.78;;;;;;;17.27;44.25;100344.34;5032495;28;20048;-76
2021/12/03 06:22:12;;;;;;;10.63;3.10;;;;;;;17.24;44.45;100353.38;5033146;28;20025;-79
2021/12/03 06:24:39;;;;;;;8.43;2.70;;;;;;;17.24;44.14;100341.53;5032826;28;20029;-77
2021/12/03 06:27:05;;;;;;;9.57;2.28;;;;;;;17.13;44.66;100349.59;5032820;28;20029;-75
2021/12/03 06:29:31;;;;;;;9.60;2.92;;;;;;;17.20;44.28;100344.22;5032757;28;20026;-75
2021/12/03 06:31:56;;;;;;;14.02;3.22;;;;;;;17.15;44.39;100323.25;5032679;28;20117;-75
2021/12/03 06:34:22;;;;;;;7.32;2.78;;;;;;;17.02;44.66;100337.56;4998623;28;20061;-80
2021/12/03 06:36:48;;;;;;;18.40;3.20;;;;;;;16.82;45.02;100347.81;5032702;28;20100;-75
2021/12/03 06:39:14;;;;;;;10.93;2.40;;;;;;;16.80;45.35;100345.44;5032602;28;20043;-76
2021/12/03 06:41:39;;;;;;;13.55;3.13;;;;;;;16.60;45.72;100339.09;5032604;28;20030;-75
2021/12/03 06:44:05;;;;;;;12.48;2.75;;;;;;;16.43;45.93;100339.53;5032358;28;20049;-76
2021/12/03 06:46:32;;;;;;;10.52;2.80;;;;;;;16.37;46.20;100346.50;5032377;28;20579;-75
2021/12/03 06:48:58;;;;;;;14.05;3.28;;;;;;;16.52;45.68;100331.84;5032168;28;20099;-75
2021/12/03 06:51:24;;;;;;;17.17;3.03;;;;;;;16.61;45.50;100343.44;5014803;28;20087;-75
2021/12/03 06:54:03;;;;;;;9.85;2.85;;;;;;;16.65;45.19;100336.06;5014566;28;20551;-75
2021/12/03 06:56:43;;;;;;;9.88;2.60;;;;;;;16.71;45.26;100347.63;5032499;28;20060;-75
2021/12/03 06:59:10;;;;;;;12.13;2.63;;;;;;;16.79;45.01;100351.31;5032430;28;20068;-76
2021/12/03 07:01:36;;;;;;;18.77;3.25;;;;;;;16.72;45.20;100353.94;5032356;28;20078;-75
2021/12/03 07:04:02;;;;;;;8.45;2.47;;;;;;;16.55;45.76;100341.34;5032278;28;20037;-75
2021/12/03 07:06:27;;;;;;;12.88;2.95;;;;;;;16.57;45.62;100353.63;5014669;28;20029;-75
2021/12/03 07:08:53;;;;;;;17.88;3.28;;;;;;;16.83;44.79;100343.91;5032355;28;20029;-75
2021/12/03 07:11:18;;;;;;;14.23;3.00;;;;;;;16.84;44.67;100337.22;5035021;28;20038;-76
2021/12/03 07:13:44;;;;;;;10.68;2.53;;;;;;;16.86;44.66;100337.69;5040112;28;20025;-77
2021/12/03 07:16:10;;;;;;;19.95;3.85;;;;;;;16.85;44.63;100355.38;5040906;28;20056;-80
2021/12/03 07:18:35;;;;;;;18.05;3.92;;;;;;;16.84;44.56;100334.47;5037026;28;20033;-80
2021/12/03 07:21:01;;;;;;;16.63;4.38;;;;;;;16.62;45.24;100336.78;5046976;28;20395;-78
2021/12/03 07:23:27;;;;;;;16.50;3.65;;;;;;;16.67;44.89;100340.41;5023531;28;20049;-77
2021/12/03 07:25:53;;;;;;;11.95;3.08;;;;;;;16.77;44.71;100345.34;5035600;28;20100;-78
2021/12/03 07:28:19;;;;;;;18.05;3.33;;;;;;;16.65;45.13;100352.59;5034480;28;20167;-77
2021/12/03 07:30:45;;;;;;;19.77;4.18;;;;;;;16.72;44.85;100362.22;5036001;28;20056;-77
2021/12/03 07:33:14;;;;;;;18.10;4.53;;;;;;;16.71;44.77;100347.63;5034755;28;20550;-77
2021/12/03 07:35:40;;;;;;;21.70;3.73;;;;;;;16.60;45.44;100341.84;5030860;28;20033;-76
2021/12/03 07:38:05;;;;;;;12.15;3.05;;;;;;;16.49;45.49;100351.88;5028911;28;20681;-80
2021/12/03 07:40:31;;;;;;;12.55;3.78;;;;;;;16.64;45.31;100342.75;5029845;28;20053;-78
2021/12/03 07:42:57;;;;;;;15.23;3.88;;;;;;;16.29;46.09;100350.25;5031254;28;20025;-77
2021/12/03 07:45:22;;;;;;;19.25;4.57;;;;;;;16.60;45.42;100363.13;5035402;28;20076;-77
2021/12/03 07:47:48;;;;;;;17.48;3.63;;;;;;;16.63;45.54;100356.91;5035574;28;20034;-81
2021/12/03 07:50:14;;;;;;;14.93;3.60;;;;;;;16.71;45.29;100353.16;5013462;28;20082;-78
2021/12/03 07:52:40;;;;;;;13.07;3.40;;;;;;;16.76;45.21;100346.53;5044928;28;20068;-77
2021/12/03 07:55:07;;;;;;;14.23;4.53;;;;;;;16.90;44.80;100344.03;5044744;28;20053;-76
2021/12/03 07:57:32;;;;;;;16.77;4.57;;;;;;;16.74;45.34;100330.34;5033238;28;20037;-77
2021/12/03 07:59:59;;;;;;;22.50;4.75;;;;;;;16.86;45.10;100337.69;5018562;28;20025;-77
2021/12/03 08:02:24;;;;;;;19.75;5.35;;;;;;;16.79;45.26;100335.56;5031420;28;20038;-72
2021/12/03 08:04:50;;;;;;;13.73;3.50;;;;;;;16.82;45.17;100328.53;5035253;28;20476;-71
2021/12/03 08:07:15;;;;;;;19.98;3.88;;;;;;;16.78;44.83;100342.25;5035256;28;20036;-71
2021/12/03 08:09:41;;;;;;;12.93;3.53;;;;;;;16.73;45.16;100338.97;5034886;28;20052;-75
2021/12/03 08:12:07;;;;;;;16.85;3.22;;;;;;;16.40;46.04;100348.53;5034988;28;20082;-72
2021/12/03 08:14:33;;;;;;;23.23;4.05;;;;;;;16.64;45.12;100352.97;5035470;28;20388;-75
2021/12/03 08:16:58;;;;;;;19.02;4.88;;;;;;;16.51;45.62;100343.25;5035096;28;20026;-72
2021/12/03 08:19:24;;;;;;;28.55;5.82;;;;;;;16.62;45.12;100344.25;5035087;28;20134;-73
2021/12/03 08:21:49;;;;;;;17.75;4.40;;;;;;;16.59;45.06;100336.72;5034419;28;20030;-72
2021/12/03 08:24:15;;;;;;;19.95;3.85;;;;;;;16.53;45.32;100351.94;5018256;28;20799;-72
2021/12/03 08:26:41;;;;;;;16.60;4.65;;;;;;;16.62;45.27;100350.59;5018595;28;20029;-73
2021/12/03 08:29:06;;;;;;;14.75;4.30;;;;;;;16.44;45.76;100346.63;5017483;28;20029;-72
2021/12/03 08:31:32;;;;;;;14.55;3.47;;;;;;;16.58;45.49;100349.69;5015819;28;20136;-72
2021/12/03 08:33:58;;;;;;;13.48;5.00;;;;;;;16.58;45.22;100355.22;5016362;28;20048;-72
2021/12/03 08:36:23;;;;;;;19.40;4.18;;;;;;;16.64;45.32;100350.22;5016373;28;20022;-72
2021/12/03 08:38:49;;;;;;;15.38;3.47;;;;;;;16.63;45.25;100351.38;5015154;28;20073;-72
2021/12/03 08:41:18;;;;;;;17.00;3.85;;;;;;;16.60;45.43;100347.38;5015569;28;20025;-72
2021/12/03 08:43:47;;;;;;;20.00;2.72;;;;;;;16.69;44.96;100341.66;5025963;28;20092;-72
2021/12/03 08:46:22;;;;;;;13.75;3.63;;;;;;;16.61;45.25;100348.16;5033807;28;20022;-72
2021/12/03 08:48:48;;;;;;;14.25;3.38;;;;;;;16.48;45.78;100355.81;5034463;28;20025;-72
2021/12/03 08:56:27;;;;;;;16.25;4.13;;;;;;;16.69;45.08;100347.19;5034419;28;20136;-74
2021/12/03 08:58:52;;;;;;;14.15;3.20;;;;;;;16.53;45.67;100347.22;5034191;28;20395;-73
2021/12/03 09:01:18;;;;;;;17.23;3.58;;;;;;;16.54;45.66;100354.31;5034283;28;20057;-73
2021/12/03 09:03:43;;;;;;;14.63;3.72;;;;;;;16.47;45.99;100362.44;5034243;28;20037;-73
2021/12/03 09:06:09;;;;;;;11.07;3.47;;;;;;;16.26;46.53;100367.53;5033840;28;20434;-72
2021/12/03 09:08:34;;;;;;;12.02;3.78;;;;;;;16.28;46.40;100356.94;5024351;28;20029;-74
2021/12/03 09:11:00;;;;;;;18.08;4.40;;;;;;;16.43;46.15;100369.88;5003210;28;20033;-74
2021/12/03 09:13:26;;;;;;;16.58;3.58;;;;;;;16.47;46.36;100364.41;4997713;28;20052;-73
2021/12/03 09:16:00;;;;;;;19.88;3.50;;;;;;;16.61;45.86;100368.28;5002307;28;20021;-72
2021/12/03 09:18:40;;;;;;;15.30;4.07;;;;;;;16.79;45.57;100368.69;4995910;28;20026;-73
2021/12/03 09:24:13;;;;;;;21.83;4.35;;;;;;;16.50;46.38;100361.75;4992006;28;20034;-72
2021/12/03 09:26:41;;;;;;;13.77;3.78;;;;;;;16.73;45.89;100366.56;5010549;28;20380;-72
2021/12/03 09:29:10;;;;;;;14.50;4.72;;;;;;;16.83;45.47;100354.94;5015127;28;20435;-73
2021/12/03 09:31:37;;;;;;;15.68;4.22;;;;;;;16.94;45.41;100355.97;5002659;28;20018;-72
2021/12/03 09:34:10;;;;;;;23.75;4.25;;;;;;;16.87;45.61;100339.25;4997265;28;20048;-72
2021/12/03 09:36:40;;;;;;;14.40;4.38;;;;;;;16.99;45.12;100341.03;4998541;28;20073;-72
2021/12/03 09:39:06;;;;;;;23.27;3.72;;;;;;;17.01;45.40;100344.25;4994814;28;20075;-72
2021/12/03 09:41:32;;;;;;;15.63;3.33;;;;;;;16.81;45.63;100357.28;5005657;28;20024;-72
2021/12/03 09:43:57;;;;;;;15.80;3.30;;;;;;;17.11;44.83;100343.66;5039208;28;20038;-71
2021/12/03 09:46:27;;;;;;;14.38;3.45;;;;;;;17.07;45.21;100346.34;5031856;28;20033;-72
2021/12/03 09:51:37;;;;;;;15.65;3.63;;;;;;;17.03;45.11;100348.25;5015607;28;20058;-71
2021/12/03 09:56:33;;;;;;;15.73;3.75;;;;;;;16.98;45.60;100362.34;5044686;28;20053;-73
2021/12/03 10:01:36;;;;;;;14.65;3.75;;;;;;;16.92;45.48;100361.81;5043139;28;20036;-72
2021/12/03 10:14:47;;;;;;;15.38;3.78;;;;;;;17.08;45.33;100381.06;4998569;28;20179;-76
2021/12/03 10:36:28;;;;;;;17.50;4.38;;;;;;;16.89;45.71;100342.44;5025035;28;20163;-75
2021/12/03 10:44:34;;;;;;;18.95;4.90;;;;;;;17.12;45.25;100337.75;5028207;28;20046;-80
2021/12/03 11:12:26;;;;;;;18.73;4.32;;;;;;;17.19;45.25;100290.97;5037733;28;20096;-79
2021/12/03 11:21:19;;;;;;;20.52;4.40;;;;;;;17.22;45.00;100261.81;5000347;28;20056;-85
2021/12/03 12:42:12;;;;;;;16.98;4.75;;;;;;;17.60;43.84;100114.41;5035712;28;19913;-85
2021/12/03 13:09:08;;;;;;;16.80;4.55;;;;;;;17.59;43.92;100051.25;5034350;28;20107;-80
2021/12/03 13:12:00;;;;;;;19.75;4.45;;;;;;;17.43;44.32;100043.19;5034748;28;20035;-76
2021/12/03 13:39:12;;;;;;;18.33;4.72;;;;;;;17.64;43.74;100040.69;5034880;28;20180;-82
2021/12/03 14:11:35;;;;;;;12.52;3.50;;;;;;;17.88;43.36;99972.25;5034730;28;20044;-76
2021/12/03 14:41:33;;;;;;;14.20;4.07;;;;;;;17.64;43.66;99935.69;5034003;28;20025;-87
2021/12/03 14:46:59;;;;;;;20.45;6.55;;;;;;;17.79;43.21;99928.38;5033963;28;20116;-88
2021/12/03 14:49:45;;;;;;;8.40;3.85;;;;;;;17.65;43.60;99937.28;5015858;28;20090;-76
2021/12/03 14:52:35;;;;;;;21.85;4.05;;;;;;;17.58;43.70;99939.19;5033390;28;20032;-86
2021/12/03 14:55:07;;;;;;;19.52;4.93;;;;;;;17.60;43.69;99926.56;5033552;28;20033;-87
2021/12/03 14:57:44;;;;;;;23.98;5.25;;;;;;;17.56;43.58;99927.72;5033701;28;20028;-81
2021/12/03 15:00:27;;;;;;;19.90;4.35;;;;;;;17.51;43.49;99923.34;5033766;28;20028;-87
2021/12/03 15:06:01;;;;;;;20.45;4.90;;;;;;;17.64;43.21;99926.63;5043446;28;20090;-76
2021/12/03 15:08:37;;;;;;;16.13;5.43;;;;;;;17.61;43.18;99924.63;5042439;28;20060;-79
2021/12/03 15:22:07;;;;;;;13.95;4.57;;;;;;;17.19;43.66;99910.00;5040373;28;20021;-77
2021/12/03 15:25:10;;;;;;;23.95;5.25;;;;;;;17.03;44.24;99903.88;5039841;28;20021;-77
2021/12/03 16:10:27;;;;;;;23.38;8.90;;;;;;;16.97;44.41;99864.00;5042690;28;20079;-83
2021/12/03 16:27:09;;;;;;;21.80;7.22;;;;;;;16.78;44.36;99856.69;5013237;28;20368;-81
2021/12/03 16:46:06;;;;;;;30.02;10.98;;;;;;;16.84;44.07;99837.81;5018619;28;20060;-82
2021/12/03 16:53:32;;;;;;;27.65;11.05;;;;;;;16.96;43.70;99836.78;5008119;28;20041;-84
2021/12/03 16:56:09;;;;;;;22.95;9.18;;;;;;;17.01;44.04;99828.97;5001735;28;20803;-84
2021/12/03 16:58:37;;;;;;;22.73;8.73;;;;;;;16.92;44.16;99828.47;5002918;28;20017;-82
2021/12/03 17:01:09;;;;;;;23.65;8.93;;;;;;;16.92;43.95;99831.22;5003517;28;20032;-83
2021/12/03 17:20:00;;;;;;;21.48;10.50;;;;;;;16.82;44.40;99798.78;5019111;28;20486;-80
2021/12/03 17:49:48;;;;;;;14.43;6.50;;;;;;;17.11;43.61;99762.03;5033778;28;20094;-83
2021/12/03 18:00:11;;;;;;;33.40;25.15;;;;;;;17.08;43.88;99753.75;5013561;28;20171;-84
2021/12/03 18:02:43;;;;;;;18.35;8.63;;;;;;;17.15;43.64;99749.06;4996979;28;20037;-86
2021/12/03 18:56:13;;;;;;;18.90;7.53;;;;;;;17.33;43.30;99756.69;5008872;28;20035;-88
2021/12/03 18:58:39;;;;;;;26.00;7.88;;;;;;;17.35;43.46;99773.66;5001513;28;20219;-85
2021/12/03 19:01:05;;;;;;;27.80;8.25;;;;;;;17.32;43.49;99766.16;5000921;28;20517;-79
2021/12/03 19:11:17;;;;;;;22.30;8.93;;;;;;;17.41;43.20;99747.28;5031876;28;20091;-76
2021/12/03 19:13:43;;;;;;;22.05;8.57;;;;;;;17.43;43.14;99745.72;5031964;28;20033;-84
2021/12/03 19:16:11;;;;;;;23.63;10.07;;;;;;;17.45;43.07;99734.28;5031904;28;20385;-76